sensor_id;sensor_type;location;lat;lon;timestamp;P1;durP1;ratioP1;P2;durP2;ratioP2
17193;SDS011;8713;48.388;10.928;2022-08-06T00:00:17;4.45;;;2.15;;
17193;SDS011;8713;48.388;10.928;2022-08-06T00:01:27;3.88;;;2.22;;
17193;SDS011;8713;48.388;10.928;2022-08-06T00:02:36;3.90;;;2.30;;
17193;SDS011;8713;48.388;10.928;2022-08-06T00:03:46;4.15;;;2.35;;
17193;SDS011;8713;48.388;10.928;2022-08-06T00:04:56;5.88;;;2.35;;
17193;SDS011;8713;48.388;10.928;2022-08-06T00:06:07;3.00;;;2.10;;
17193;SDS011;8713;48.388;10.928;2022-08-06T00:07:17;2.78;;;2.10;;
17193;SDS011;8713;48.388;10.928;2022-08-06T00:08:26;4.53;;;2.50;;
17193;SDS011;8713;48.388;10.928;2022-08-06T00:09:36;3.25;;;2.22;;
17193;SDS011;8713;48.388;10.928;2022-08-06T00:10:46;4.90;;;2.88;;
17193;SDS011;8713;48.388;10.928;2022-08-06T00:12:02;3.55;;;2.35;;
17193;SDS011;8713;48.388;10.928;2022-08-06T00:13:13;3.22;;;2.15;;
17193;SDS011;8713;48.388;10.928;2022-08-06T00:14:22;4.57;;;2.58;;
17193;SDS011;8713;48.388;10.928;2022-08-06T00:15:32;5.13;;;3.70;;
17193;SDS011;8713;48.388;10.928;2022-08-06T00:16:42;6.45;;;3.95;;
17193;SDS011;8713;48.388;10.928;2022-08-06T00:17:51;8.15;;;4.45;;
17193;SDS011;8713;48.388;10.928;2022-08-06T00:19:02;7.85;;;4.78;;
17193;SDS011;8713;48.388;10.928;2022-08-06T00:20:12;7.20;;;4.85;;
17193;SDS011;8713;48.388;10.928;2022-08-06T00:21:23;9.75;;;5.32;;
17193;SDS011;8713;48.388;10.928;2022-08-06T00:22:32;10.35;;;5.15;;
17193;SDS011;8713;48.388;10.928;2022-08-06T00:23:42;7.72;;;5.00;;
17193;SDS011;8713;48.388;10.928;2022-08-06T00:24:51;6.70;;;4.63;;
17193;SDS011;8713;48.388;10.928;2022-08-06T00:26:01;8.90;;;5.45;;
17193;SDS011;8713;48.388;10.928;2022-08-06T00:27:10;7.25;;;4.93;;
17193;SDS011;8713;48.388;10.928;2022-08-06T00:28:21;6.78;;;4.88;;
17193;SDS011;8713;48.388;10.928;2022-08-06T00:29:31;8.73;;;5.68;;
17193;SDS011;8713;48.388;10.928;2022-08-06T00:30:40;7.32;;;4.93;;
17193;SDS011;8713;48.388;10.928;2022-08-06T00:31:50;10.05;;;5.60;;
17193;SDS011;8713;48.388;10.928;2022-08-06T00:33:00;7.47;;;5.03;;
17193;SDS011;8713;48.388;10.928;2022-08-06T00:34:09;8.07;;;5.20;;
17193;SDS011;8713;48.388;10.928;2022-08-06T00:35:19;7.75;;;4.75;;
17193;SDS011;8713;48.388;10.928;2022-08-06T00:36:30;7.45;;;5.03;;
17193;SDS011;8713;48.388;10.928;2022-08-06T00:37:41;8.77;;;5.50;;
17193;SDS011;8713;48.388;10.928;2022-08-06T00:38:51;8.82;;;5.68;;
17193;SDS011;8713;48.388;10.928;2022-08-06T00:40:01;9.50;;;5.53;;
17193;SDS011;8713;48.388;10.928;2022-08-06T00:41:10;9.18;;;5.60;;
17193;SDS011;8713;48.388;10.928;2022-08-06T00:42:20;7.30;;;4.90;;
17193;SDS011;8713;48.388;10.928;2022-08-06T00:43:30;7.72;;;4.93;;
17193;SDS011;8713;48.388;10.928;2022-08-06T00:44:39;9.10;;;5.32;;
17193;SDS011;8713;48.388;10.928;2022-08-06T00:45:49;8.15;;;5.10;;
17193;SDS011;8713;48.388;10.928;2022-08-06T00:46:59;9.40;;;5.53;;
17193;SDS011;8713;48.388;10.928;2022-08-06T00:48:08;9.85;;;5.85;;
17193;SDS011;8713;48.388;10.928;2022-08-06T00:49:18;8.63;;;5.10;;
17193;SDS011;8713;48.388;10.928;2022-08-06T00:50:27;10.13;;;4.93;;
17193;SDS011;8713;48.388;10.928;2022-08-06T00:51:37;8.88;;;5.00;;
17193;SDS011;8713;48.388;10.928;2022-08-06T00:52:46;9.50;;;5.35;;
17193;SDS011;8713;48.388;10.928;2022-08-06T00:53:56;8.25;;;4.97;;
17193;SDS011;8713;48.388;10.928;2022-08-06T00:55:05;9.00;;;4.97;;
17193;SDS011;8713;48.388;10.928;2022-08-06T00:56:15;7.78;;;5.00;;
17193;SDS011;8713;48.388;10.928;2022-08-06T00:57:25;9.13;;;5.00;;
17193;SDS011;8713;48.388;10.928;2022-08-06T00:58:35;8.23;;;4.88;;
17193;SDS011;8713;48.388;10.928;2022-08-06T00:59:45;8.23;;;5.25;;
17193;SDS011;8713;48.388;10.928;2022-08-06T01:00:54;8.27;;;5.13;;
17193;SDS011;8713;48.388;10.928;2022-08-06T01:02:03;8.55;;;5.05;;
17193;SDS011;8713;48.388;10.928;2022-08-06T01:03:13;7.20;;;4.80;;
17193;SDS011;8713;48.388;10.928;2022-08-06T01:04:25;8.07;;;5.13;;
17193;SDS011;8713;48.388;10.928;2022-08-06T01:05:34;9.48;;;5.15;;
17193;SDS011;8713;48.388;10.928;2022-08-06T01:06:44;8.15;;;5.03;;
17193;SDS011;8713;48.388;10.928;2022-08-06T01:07:53;8.88;;;4.80;;
17193;SDS011;8713;48.388;10.928;2022-08-06T01:09:03;7.75;;;4.53;;
17193;SDS011;8713;48.388;10.928;2022-08-06T01:10:12;8.50;;;4.90;;
17193;SDS011;8713;48.388;10.928;2022-08-06T01:11:22;6.78;;;4.65;;
17193;SDS011;8713;48.388;10.928;2022-08-06T01:12:31;7.15;;;4.53;;
17193;SDS011;8713;48.388;10.928;2022-08-06T01:13:41;8.13;;;4.53;;
17193;SDS011;8713;48.388;10.928;2022-08-06T01:14:51;8.18;;;4.68;;
17193;SDS011;8713;48.388;10.928;2022-08-06T01:16:12;9.00;;;5.30;;
17193;SDS011;8713;48.388;10.928;2022-08-06T01:20:51;9.18;;;5.18;;
17193;SDS011;8713;48.388;10.928;2022-08-06T01:24:02;8.45;;;4.97;;
17193;SDS011;8713;48.388;10.928;2022-08-06T01:28:38;8.55;;;4.43;;
17193;SDS011;8713;48.388;10.928;2022-08-06T01:29:57;8.38;;;5.05;;
17193;SDS011;8713;48.388;10.928;2022-08-06T01:31:19;8.15;;;4.75;;
17193;SDS011;8713;48.388;10.928;2022-08-06T01:33:09;7.80;;;4.72;;
17193;SDS011;8713;48.388;10.928;2022-08-06T01:34:27;7.10;;;4.38;;
17193;SDS011;8713;48.388;10.928;2022-08-06T01:35:52;6.13;;;4.05;;
17193;SDS011;8713;48.388;10.928;2022-08-06T01:37:48;6.63;;;3.55;;
17193;SDS011;8713;48.388;10.928;2022-08-06T01:38:56;5.75;;;3.85;;
17193;SDS011;8713;48.388;10.928;2022-08-06T01:40:11;6.53;;;3.67;;
17193;SDS011;8713;48.388;10.928;2022-08-06T01:41:27;8.20;;;4.43;;
17193;SDS011;8713;48.388;10.928;2022-08-06T01:42:49;7.75;;;3.97;;
17193;SDS011;8713;48.388;10.928;2022-08-06T01:44:01;7.53;;;3.75;;
17193;SDS011;8713;48.388;10.928;2022-08-06T01:45:13;5.80;;;3.88;;
17193;SDS011;8713;48.388;10.928;2022-08-06T01:46:24;7.00;;;3.92;;
17193;SDS011;8713;48.388;10.928;2022-08-06T01:47:34;7.60;;;3.95;;
17193;SDS011;8713;48.388;10.928;2022-08-06T01:48:44;5.88;;;3.70;;
17193;SDS011;8713;48.388;10.928;2022-08-06T01:49:55;6.63;;;3.78;;
17193;SDS011;8713;48.388;10.928;2022-08-06T01:51:05;6.47;;;3.97;;
17193;SDS011;8713;48.388;10.928;2022-08-06T01:52:17;6.50;;;4.07;;
17193;SDS011;8713;48.388;10.928;2022-08-06T01:53:32;6.18;;;3.70;;
17193;SDS011;8713;48.388;10.928;2022-08-06T01:54:47;4.85;;;3.55;;
17193;SDS011;8713;48.388;10.928;2022-08-06T01:56:00;6.30;;;3.72;;
17193;SDS011;8713;48.388;10.928;2022-08-06T01:57:11;5.00;;;3.60;;
17193;SDS011;8713;48.388;10.928;2022-08-06T01:58:26;7.07;;;3.90;;
17193;SDS011;8713;48.388;10.928;2022-08-06T01:59:43;5.47;;;3.35;;
17193;SDS011;8713;48.388;10.928;2022-08-06T02:00:56;6.00;;;3.47;;
17193;SDS011;8713;48.388;10.928;2022-08-06T02:02:08;5.07;;;3.28;;
17193;SDS011;8713;48.388;10.928;2022-08-06T02:03:22;5.38;;;3.42;;
17193;SDS011;8713;48.388;10.928;2022-08-06T02:04:40;6.15;;;3.72;;
17193;SDS011;8713;48.388;10.928;2022-08-06T02:05:51;5.57;;;3.35;;
17193;SDS011;8713;48.388;10.928;2022-08-06T02:07:05;5.53;;;3.53;;
17193;SDS011;8713;48.388;10.928;2022-08-06T02:08:15;5.65;;;3.58;;
17193;SDS011;8713;48.388;10.928;2022-08-06T02:09:26;6.68;;;3.80;;
17193;SDS011;8713;48.388;10.928;2022-08-06T02:10:35;4.97;;;3.22;;
17193;SDS011;8713;48.388;10.928;2022-08-06T02:11:56;4.60;;;3.40;;
17193;SDS011;8713;48.388;10.928;2022-08-06T02:13:11;5.00;;;3.25;;
17193;SDS011;8713;48.388;10.928;2022-08-06T02:14:22;5.07;;;3.28;;
17193;SDS011;8713;48.388;10.928;2022-08-06T02:15:33;5.32;;;3.28;;
17193;SDS011;8713;48.388;10.928;2022-08-06T02:16:44;6.38;;;3.85;;
17193;SDS011;8713;48.388;10.928;2022-08-06T02:17:55;5.88;;;3.50;;
17193;SDS011;8713;48.388;10.928;2022-08-06T02:19:06;5.68;;;3.53;;
17193;SDS011;8713;48.388;10.928;2022-08-06T02:20:30;5.43;;;2.92;;
17193;SDS011;8713;48.388;10.928;2022-08-06T02:21:44;5.65;;;3.17;;
17193;SDS011;8713;48.388;10.928;2022-08-06T02:22:53;7.57;;;3.38;;
17193;SDS011;8713;48.388;10.928;2022-08-06T02:24:06;5.97;;;3.63;;
17193;SDS011;8713;48.388;10.928;2022-08-06T02:25:16;4.70;;;3.20;;
17193;SDS011;8713;48.388;10.928;2022-08-06T02:26:26;4.95;;;3.17;;
17193;SDS011;8713;48.388;10.928;2022-08-06T02:27:36;4.03;;;2.80;;
17193;SDS011;8713;48.388;10.928;2022-08-06T02:28:49;5.68;;;3.30;;
17193;SDS011;8713;48.388;10.928;2022-08-06T02:29:59;4.22;;;2.97;;
17193;SDS011;8713;48.388;10.928;2022-08-06T02:31:09;4.13;;;2.85;;
17193;SDS011;8713;48.388;10.928;2022-08-06T02:32:19;5.65;;;3.03;;
17193;SDS011;8713;48.388;10.928;2022-08-06T02:33:28;3.45;;;2.30;;
17193;SDS011;8713;48.388;10.928;2022-08-06T02:34:38;3.35;;;2.40;;
17193;SDS011;8713;48.388;10.928;2022-08-06T02:35:49;3.15;;;2.10;;
17193;SDS011;8713;48.388;10.928;2022-08-06T02:38:35;2.75;;;1.90;;
17193;SDS011;8713;48.388;10.928;2022-08-06T02:40:03;3.10;;;1.90;;
17193;SDS011;8713;48.388;10.928;2022-08-06T02:43:34;2.88;;;2.08;;
17193;SDS011;8713;48.388;10.928;2022-08-06T02:46:16;2.10;;;1.70;;
17193;SDS011;8713;48.388;10.928;2022-08-06T02:47:42;3.53;;;1.90;;
17193;SDS011;8713;48.388;10.928;2022-08-06T02:49:01;3.58;;;1.83;;
17193;SDS011;8713;48.388;10.928;2022-08-06T02:50:17;4.63;;;1.60;;
17193;SDS011;8713;48.388;10.928;2022-08-06T02:51:32;3.78;;;1.77;;
17193;SDS011;8713;48.388;10.928;2022-08-06T02:52:49;2.45;;;1.77;;
17193;SDS011;8713;48.388;10.928;2022-08-06T02:54:25;2.00;;;1.40;;
17193;SDS011;8713;48.388;10.928;2022-08-06T02:55:42;2.45;;;1.70;;
17193;SDS011;8713;48.388;10.928;2022-08-06T02:56:54;2.45;;;1.50;;
17193;SDS011;8713;48.388;10.928;2022-08-06T02:58:13;2.47;;;1.67;;
17193;SDS011;8713;48.388;10.928;2022-08-06T02:59:27;2.13;;;1.63;;
17193;SDS011;8713;48.388;10.928;2022-08-06T03:00:40;3.38;;;1.67;;
17193;SDS011;8713;48.388;10.928;2022-08-06T03:01:52;3.67;;;1.63;;
17193;SDS011;8713;48.388;10.928;2022-08-06T03:03:07;1.73;;;1.60;;
17193;SDS011;8713;48.388;10.928;2022-08-06T03:04:17;2.83;;;1.73;;
17193;SDS011;8713;48.388;10.928;2022-08-06T03:05:27;1.88;;;1.60;;
17193;SDS011;8713;48.388;10.928;2022-08-06T03:06:37;4.25;;;1.63;;
17193;SDS011;8713;48.388;10.928;2022-08-06T03:07:50;4.20;;;1.92;;
17193;SDS011;8713;48.388;10.928;2022-08-06T03:09:00;2.75;;;1.58;;
17193;SDS011;8713;48.388;10.928;2022-08-06T03:10:12;2.50;;;1.60;;
17193;SDS011;8713;48.388;10.928;2022-08-06T03:11:22;2.97;;;1.85;;
17193;SDS011;8713;48.388;10.928;2022-08-06T03:12:32;2.42;;;1.67;;
17193;SDS011;8713;48.388;10.928;2022-08-06T03:13:42;2.08;;;1.60;;
17193;SDS011;8713;48.388;10.928;2022-08-06T03:14:53;2.03;;;1.58;;
17193;SDS011;8713;48.388;10.928;2022-08-06T03:16:03;2.20;;;1.70;;
17193;SDS011;8713;48.388;10.928;2022-08-06T03:17:14;2.15;;;1.30;;
17193;SDS011;8713;48.388;10.928;2022-08-06T03:18:24;2.50;;;1.50;;
17193;SDS011;8713;48.388;10.928;2022-08-06T03:19:34;2.55;;;1.80;;
17193;SDS011;8713;48.388;10.928;2022-08-06T03:20:44;2.63;;;1.67;;
17193;SDS011;8713;48.388;10.928;2022-08-06T03:21:54;3.75;;;1.63;;
17193;SDS011;8713;48.388;10.928;2022-08-06T03:23:05;2.60;;;1.60;;
17193;SDS011;8713;48.388;10.928;2022-08-06T03:24:15;3.03;;;1.75;;
17193;SDS011;8713;48.388;10.928;2022-08-06T03:25:26;2.90;;;1.50;;
17193;SDS011;8713;48.388;10.928;2022-08-06T03:26:37;2.47;;;1.60;;
17193;SDS011;8713;48.388;10.928;2022-08-06T03:27:48;2.50;;;1.55;;
17193;SDS011;8713;48.388;10.928;2022-08-06T03:28:58;1.70;;;1.45;;
17193;SDS011;8713;48.388;10.928;2022-08-06T03:30:10;3.67;;;1.85;;
17193;SDS011;8713;48.388;10.928;2022-08-06T03:31:27;2.95;;;1.77;;
17193;SDS011;8713;48.388;10.928;2022-08-06T03:32:36;2.35;;;1.80;;
17193;SDS011;8713;48.388;10.928;2022-08-06T03:33:46;2.45;;;1.70;;
17193;SDS011;8713;48.388;10.928;2022-08-06T03:34:56;2.35;;;1.70;;
17193;SDS011;8713;48.388;10.928;2022-08-06T03:36:07;3.90;;;1.65;;
17193;SDS011;8713;48.388;10.928;2022-08-06T03:37:18;2.40;;;1.90;;
17193;SDS011;8713;48.388;10.928;2022-08-06T03:38:31;2.45;;;1.60;;
17193;SDS011;8713;48.388;10.928;2022-08-06T03:39:46;1.88;;;1.60;;
17193;SDS011;8713;48.388;10.928;2022-08-06T03:40:58;3.22;;;1.75;;
17193;SDS011;8713;48.388;10.928;2022-08-06T03:42:08;2.67;;;1.92;;
17193;SDS011;8713;48.388;10.928;2022-08-06T03:43:17;3.13;;;1.85;;
17193;SDS011;8713;48.388;10.928;2022-08-06T03:44:27;2.40;;;1.90;;
17193;SDS011;8713;48.388;10.928;2022-08-06T03:45:37;2.20;;;1.83;;
17193;SDS011;8713;48.388;10.928;2022-08-06T03:46:53;2.72;;;1.90;;
17193;SDS011;8713;48.388;10.928;2022-08-06T03:48:07;3.50;;;1.90;;
17193;SDS011;8713;48.388;10.928;2022-08-06T03:49:26;2.22;;;1.70;;
17193;SDS011;8713;48.388;10.928;2022-08-06T03:50:40;2.63;;;1.73;;
17193;SDS011;8713;48.388;10.928;2022-08-06T03:51:53;2.47;;;1.73;;
17193;SDS011;8713;48.388;10.928;2022-08-06T03:53:36;2.60;;;1.77;;
17193;SDS011;8713;48.388;10.928;2022-08-06T03:54:40;3.67;;;1.85;;
17193;SDS011;8713;48.388;10.928;2022-08-06T03:55:57;3.17;;;2.00;;
17193;SDS011;8713;48.388;10.928;2022-08-06T03:57:09;2.10;;;1.75;;
17193;SDS011;8713;48.388;10.928;2022-08-06T03:58:25;3.40;;;1.83;;
17193;SDS011;8713;48.388;10.928;2022-08-06T03:59:36;2.53;;;1.80;;
17193;SDS011;8713;48.388;10.928;2022-08-06T04:00:50;4.68;;;2.03;;
17193;SDS011;8713;48.388;10.928;2022-08-06T04:02:08;4.07;;;2.03;;
17193;SDS011;8713;48.388;10.928;2022-08-06T04:03:18;4.60;;;1.95;;
17193;SDS011;8713;48.388;10.928;2022-08-06T04:04:30;3.45;;;1.95;;
17193;SDS011;8713;48.388;10.928;2022-08-06T04:05:40;3.58;;;2.22;;
17193;SDS011;8713;48.388;10.928;2022-08-06T04:06:49;2.88;;;2.08;;
17193;SDS011;8713;48.388;10.928;2022-08-06T04:08:01;2.05;;;1.75;;
17193;SDS011;8713;48.388;10.928;2022-08-06T04:09:13;2.58;;;1.90;;
17193;SDS011;8713;48.388;10.928;2022-08-06T04:10:30;2.40;;;1.80;;
17193;SDS011;8713;48.388;10.928;2022-08-06T04:11:41;2.10;;;1.55;;
17193;SDS011;8713;48.388;10.928;2022-08-06T04:12:51;3.67;;;2.15;;
17193;SDS011;8713;48.388;10.928;2022-08-06T04:14:01;3.88;;;1.73;;
17193;SDS011;8713;48.388;10.928;2022-08-06T04:15:11;2.50;;;1.85;;
17193;SDS011;8713;48.388;10.928;2022-08-06T04:16:21;3.33;;;1.95;;
17193;SDS011;8713;48.388;10.928;2022-08-06T04:17:31;3.33;;;2.10;;
17193;SDS011;8713;48.388;10.928;2022-08-06T04:18:40;3.25;;;1.85;;
17193;SDS011;8713;48.388;10.928;2022-08-06T04:19:50;3.58;;;1.83;;
17193;SDS011;8713;48.388;10.928;2022-08-06T04:21:04;2.88;;;2.00;;
17193;SDS011;8713;48.388;10.928;2022-08-06T04:22:17;2.88;;;2.10;;
17193;SDS011;8713;48.388;10.928;2022-08-06T04:23:26;2.65;;;1.90;;
17193;SDS011;8713;48.388;10.928;2022-08-06T04:24:35;3.58;;;1.90;;
17193;SDS011;8713;48.388;10.928;2022-08-06T04:25:47;2.72;;;1.70;;
17193;SDS011;8713;48.388;10.928;2022-08-06T04:27:02;2.70;;;1.88;;
17193;SDS011;8713;48.388;10.928;2022-08-06T04:28:14;4.43;;;1.85;;
17193;SDS011;8713;48.388;10.928;2022-08-06T04:29:24;2.92;;;2.00;;
17193;SDS011;8713;48.388;10.928;2022-08-06T04:30:33;2.78;;;2.00;;
17193;SDS011;8713;48.388;10.928;2022-08-06T04:31:44;3.05;;;2.05;;
17193;SDS011;8713;48.388;10.928;2022-08-06T04:32:54;2.55;;;2.03;;
17193;SDS011;8713;48.388;10.928;2022-08-06T04:34:04;3.95;;;2.00;;
17193;SDS011;8713;48.388;10.928;2022-08-06T04:35:14;2.70;;;1.67;;
17193;SDS011;8713;48.388;10.928;2022-08-06T04:36:24;2.80;;;2.08;;
17193;SDS011;8713;48.388;10.928;2022-08-06T04:37:34;3.40;;;2.22;;
17193;SDS011;8713;48.388;10.928;2022-08-06T04:38:44;2.47;;;1.83;;
17193;SDS011;8713;48.388;10.928;2022-08-06T04:39:54;3.45;;;1.95;;
17193;SDS011;8713;48.388;10.928;2022-08-06T04:41:04;2.40;;;1.90;;
17193;SDS011;8713;48.388;10.928;2022-08-06T04:42:14;2.92;;;2.15;;
17193;SDS011;8713;48.388;10.928;2022-08-06T04:43:25;4.15;;;1.98;;
17193;SDS011;8713;48.388;10.928;2022-08-06T04:44:35;3.55;;;1.88;;
17193;SDS011;8713;48.388;10.928;2022-08-06T04:45:44;4.00;;;2.30;;
17193;SDS011;8713;48.388;10.928;2022-08-06T04:46:54;3.85;;;1.92;;
17193;SDS011;8713;48.388;10.928;2022-08-06T04:48:05;2.17;;;1.77;;
17193;SDS011;8713;48.388;10.928;2022-08-06T04:49:17;2.85;;;2.00;;
17193;SDS011;8713;48.388;10.928;2022-08-06T04:50:27;3.78;;;2.00;;
17193;SDS011;8713;48.388;10.928;2022-08-06T04:51:37;4.00;;;1.83;;
17193;SDS011;8713;48.388;10.928;2022-08-06T04:52:46;4.63;;;1.90;;
17193;SDS011;8713;48.388;10.928;2022-08-06T04:53:56;2.38;;;2.03;;
17193;SDS011;8713;48.388;10.928;2022-08-06T04:55:05;3.13;;;1.90;;
17193;SDS011;8713;48.388;10.928;2022-08-06T04:56:15;2.83;;;2.08;;
17193;SDS011;8713;48.388;10.928;2022-08-06T04:57:25;2.05;;;1.60;;
17193;SDS011;8713;48.388;10.928;2022-08-06T04:58:34;2.75;;;1.85;;
17193;SDS011;8713;48.388;10.928;2022-08-06T04:59:44;2.17;;;1.80;;
17193;SDS011;8713;48.388;10.928;2022-08-06T05:00:53;2.50;;;1.73;;
17193;SDS011;8713;48.388;10.928;2022-08-06T05:02:03;2.47;;;1.75;;
17193;SDS011;8713;48.388;10.928;2022-08-06T05:03:13;2.40;;;1.90;;
17193;SDS011;8713;48.388;10.928;2022-08-06T05:04:23;3.92;;;2.00;;
17193;SDS011;8713;48.388;10.928;2022-08-06T05:05:44;2.92;;;1.90;;
17193;SDS011;8713;48.388;10.928;2022-08-06T05:07:28;3.17;;;1.63;;
17193;SDS011;8713;48.388;10.928;2022-08-06T05:08:40;3.53;;;1.77;;
17193;SDS011;8713;48.388;10.928;2022-08-06T05:09:51;2.30;;;1.70;;
17193;SDS011;8713;48.388;10.928;2022-08-06T05:11:10;2.95;;;2.00;;
17193;SDS011;8713;48.388;10.928;2022-08-06T05:12:48;3.00;;;1.55;;
17193;SDS011;8713;48.388;10.928;2022-08-06T05:14:04;2.78;;;1.70;;
17193;SDS011;8713;48.388;10.928;2022-08-06T05:15:38;2.55;;;1.70;;
17193;SDS011;8713;48.388;10.928;2022-08-06T05:16:51;2.78;;;1.77;;
17193;SDS011;8713;48.388;10.928;2022-08-06T05:18:24;2.83;;;1.80;;
17193;SDS011;8713;48.388;10.928;2022-08-06T05:19:45;2.80;;;1.63;;
17193;SDS011;8713;48.388;10.928;2022-08-06T05:20:59;2.53;;;1.90;;
17193;SDS011;8713;48.388;10.928;2022-08-06T05:22:09;4.43;;;1.85;;
17193;SDS011;8713;48.388;10.928;2022-08-06T05:23:31;2.33;;;1.77;;
17193;SDS011;8713;48.388;10.928;2022-08-06T05:24:43;2.80;;;1.70;;
17193;SDS011;8713;48.388;10.928;2022-08-06T05:25:53;1.77;;;1.50;;
17193;SDS011;8713;48.388;10.928;2022-08-06T05:27:03;3.85;;;2.00;;
17193;SDS011;8713;48.388;10.928;2022-08-06T05:28:12;2.63;;;1.75;;
17193;SDS011;8713;48.388;10.928;2022-08-06T05:29:22;3.28;;;1.65;;
17193;SDS011;8713;48.388;10.928;2022-08-06T05:30:31;2.70;;;2.00;;
17193;SDS011;8713;48.388;10.928;2022-08-06T05:31:41;3.88;;;1.77;;
17193;SDS011;8713;48.388;10.928;2022-08-06T05:32:50;2.45;;;1.80;;
17193;SDS011;8713;48.388;10.928;2022-08-06T05:34:01;2.15;;;1.50;;
17193;SDS011;8713;48.388;10.928;2022-08-06T05:35:11;2.63;;;1.60;;
17193;SDS011;8713;48.388;10.928;2022-08-06T05:36:21;2.28;;;1.60;;
17193;SDS011;8713;48.388;10.928;2022-08-06T05:37:31;2.65;;;1.80;;
17193;SDS011;8713;48.388;10.928;2022-08-06T05:38:40;3.00;;;1.67;;
17193;SDS011;8713;48.388;10.928;2022-08-06T05:39:50;1.85;;;1.48;;
17193;SDS011;8713;48.388;10.928;2022-08-06T05:40:59;1.83;;;1.55;;
17193;SDS011;8713;48.388;10.928;2022-08-06T05:42:09;2.95;;;1.58;;
17193;SDS011;8713;48.388;10.928;2022-08-06T05:43:18;2.33;;;1.60;;
17193;SDS011;8713;48.388;10.928;2022-08-06T05:44:28;2.35;;;1.55;;
17193;SDS011;8713;48.388;10.928;2022-08-06T05:45:41;2.30;;;1.50;;
17193;SDS011;8713;48.388;10.928;2022-08-06T05:46:51;3.95;;;1.42;;
17193;SDS011;8713;48.388;10.928;2022-08-06T05:48:03;2.22;;;1.63;;
17193;SDS011;8713;48.388;10.928;2022-08-06T05:49:15;2.67;;;1.60;;
17193;SDS011;8713;48.388;10.928;2022-08-06T05:50:31;2.05;;;1.45;;
17193;SDS011;8713;48.388;10.928;2022-08-06T05:51:44;2.40;;;1.35;;
17193;SDS011;8713;48.388;10.928;2022-08-06T05:53:09;3.35;;;1.50;;
17193;SDS011;8713;48.388;10.928;2022-08-06T05:54:37;2.22;;;1.45;;
17193;SDS011;8713;48.388;10.928;2022-08-06T05:56:29;1.95;;;1.25;;
17193;SDS011;8713;48.388;10.928;2022-08-06T05:59:00;1.83;;;1.40;;
17193;SDS011;8713;48.388;10.928;2022-08-06T06:00:14;2.65;;;1.70;;
17193;SDS011;8713;48.388;10.928;2022-08-06T06:01:26;1.60;;;1.38;;
17193;SDS011;8713;48.388;10.928;2022-08-06T06:02:36;2.75;;;1.60;;
17193;SDS011;8713;48.388;10.928;2022-08-06T06:03:51;1.85;;;1.40;;
17193;SDS011;8713;48.388;10.928;2022-08-06T06:05:05;1.73;;;1.48;;
17193;SDS011;8713;48.388;10.928;2022-08-06T06:06:15;3.50;;;1.80;;
17193;SDS011;8713;48.388;10.928;2022-08-06T06:07:24;3.42;;;1.88;;
17193;SDS011;8713;48.388;10.928;2022-08-06T06:08:34;2.78;;;1.83;;
17193;SDS011;8713;48.388;10.928;2022-08-06T06:09:45;1.95;;;1.55;;
17193;SDS011;8713;48.388;10.928;2022-08-06T06:10:54;2.40;;;1.60;;
17193;SDS011;8713;48.388;10.928;2022-08-06T06:12:05;3.00;;;1.80;;
17193;SDS011;8713;48.388;10.928;2022-08-06T06:13:15;2.10;;;1.70;;
17193;SDS011;8713;48.388;10.928;2022-08-06T06:21:00;2.65;;;1.90;;
17193;SDS011;8713;48.388;10.928;2022-08-06T06:22:51;3.28;;;2.05;;
17193;SDS011;8713;48.388;10.928;2022-08-06T06:24:26;3.95;;;2.03;;
17193;SDS011;8713;48.388;10.928;2022-08-06T06:26:08;4.03;;;1.80;;
17193;SDS011;8713;48.388;10.928;2022-08-06T06:27:40;2.95;;;1.90;;
17193;SDS011;8713;48.388;10.928;2022-08-06T06:29:04;2.40;;;2.03;;
17193;SDS011;8713;48.388;10.928;2022-08-06T06:30:48;3.17;;;2.00;;
17193;SDS011;8713;48.388;10.928;2022-08-06T06:34:05;5.20;;;2.10;;
17193;SDS011;8713;48.388;10.928;2022-08-06T06:35:32;4.38;;;2.42;;
17193;SDS011;8713;48.388;10.928;2022-08-06T06:38:25;3.42;;;2.53;;
17193;SDS011;8713;48.388;10.928;2022-08-06T06:41:26;3.80;;;2.13;;
17193;SDS011;8713;48.388;10.928;2022-08-06T06:42:56;3.92;;;2.35;;
17193;SDS011;8713;48.388;10.928;2022-08-06T06:44:19;3.17;;;2.47;;
17193;SDS011;8713;48.388;10.928;2022-08-06T06:45:37;5.65;;;2.28;;
17193;SDS011;8713;48.388;10.928;2022-08-06T06:46:55;4.45;;;2.58;;
17193;SDS011;8713;48.388;10.928;2022-08-06T06:48:14;3.58;;;2.63;;
17193;SDS011;8713;48.388;10.928;2022-08-06T06:51:01;6.93;;;3.20;;
17193;SDS011;8713;48.388;10.928;2022-08-06T06:52:24;4.57;;;2.78;;
17193;SDS011;8713;48.388;10.928;2022-08-06T06:53:39;4.82;;;3.22;;
17193;SDS011;8713;48.388;10.928;2022-08-06T06:54:52;5.05;;;3.03;;
17193;SDS011;8713;48.388;10.928;2022-08-06T06:56:05;5.05;;;3.47;;
17193;SDS011;8713;48.388;10.928;2022-08-06T06:57:16;7.13;;;3.58;;
17193;SDS011;8713;48.388;10.928;2022-08-06T06:58:42;5.72;;;3.55;;
17193;SDS011;8713;48.388;10.928;2022-08-06T06:59:56;7.00;;;2.88;;
17193;SDS011;8713;48.388;10.928;2022-08-06T07:01:10;4.28;;;2.92;;
17193;SDS011;8713;48.388;10.928;2022-08-06T07:02:24;7.47;;;3.47;;
17193;SDS011;8713;48.388;10.928;2022-08-06T07:03:36;5.70;;;3.58;;
17193;SDS011;8713;48.388;10.928;2022-08-06T07:04:47;5.25;;;3.28;;
17193;SDS011;8713;48.388;10.928;2022-08-06T07:05:58;7.22;;;3.55;;
17193;SDS011;8713;48.388;10.928;2022-08-06T07:07:07;6.80;;;3.80;;
17193;SDS011;8713;48.388;10.928;2022-08-06T07:08:18;5.88;;;3.65;;
17193;SDS011;8713;48.388;10.928;2022-08-06T07:09:29;10.38;;;4.18;;
17193;SDS011;8713;48.388;10.928;2022-08-06T07:10:41;6.35;;;3.97;;
17193;SDS011;8713;48.388;10.928;2022-08-06T07:11:51;6.10;;;4.00;;
17193;SDS011;8713;48.388;10.928;2022-08-06T07:13:03;6.65;;;3.50;;
17193;SDS011;8713;48.388;10.928;2022-08-06T07:14:13;7.70;;;3.88;;
17193;SDS011;8713;48.388;10.928;2022-08-06T07:15:23;6.28;;;4.15;;
17193;SDS011;8713;48.388;10.928;2022-08-06T07:16:33;7.00;;;4.40;;
17193;SDS011;8713;48.388;10.928;2022-08-06T07:17:43;5.82;;;4.00;;
17193;SDS011;8713;48.388;10.928;2022-08-06T07:18:53;7.38;;;4.57;;
17193;SDS011;8713;48.388;10.928;2022-08-06T07:20:06;8.73;;;4.05;;
17193;SDS011;8713;48.388;10.928;2022-08-06T07:21:17;8.30;;;4.40;;
17193;SDS011;8713;48.388;10.928;2022-08-06T07:22:27;7.53;;;4.13;;
17193;SDS011;8713;48.388;10.928;2022-08-06T07:23:37;5.50;;;3.80;;
17193;SDS011;8713;48.388;10.928;2022-08-06T07:24:46;5.88;;;4.00;;
17193;SDS011;8713;48.388;10.928;2022-08-06T07:26:01;5.95;;;3.72;;
17193;SDS011;8713;48.388;10.928;2022-08-06T07:27:11;6.93;;;4.05;;
17193;SDS011;8713;48.388;10.928;2022-08-06T07:28:22;5.28;;;3.60;;
17193;SDS011;8713;48.388;10.928;2022-08-06T07:29:35;6.28;;;3.55;;
17193;SDS011;8713;48.388;10.928;2022-08-06T07:30:44;6.90;;;3.95;;
17193;SDS011;8713;48.388;10.928;2022-08-06T07:31:54;4.13;;;3.60;;
17193;SDS011;8713;48.388;10.928;2022-08-06T07:33:04;5.63;;;3.72;;
17193;SDS011;8713;48.388;10.928;2022-08-06T07:34:14;6.97;;;3.85;;
17193;SDS011;8713;48.388;10.928;2022-08-06T07:35:23;6.60;;;4.15;;
17193;SDS011;8713;48.388;10.928;2022-08-06T07:36:35;6.57;;;4.03;;
17193;SDS011;8713;48.388;10.928;2022-08-06T07:37:54;6.57;;;4.10;;
17193;SDS011;8713;48.388;10.928;2022-08-06T07:39:09;6.07;;;4.43;;
17193;SDS011;8713;48.388;10.928;2022-08-06T07:40:22;6.40;;;3.97;;
17193;SDS011;8713;48.388;10.928;2022-08-06T07:41:38;6.45;;;4.57;;
17193;SDS011;8713;48.388;10.928;2022-08-06T07:42:50;6.80;;;4.30;;
17193;SDS011;8713;48.388;10.928;2022-08-06T07:44:05;6.20;;;3.83;;
17193;SDS011;8713;48.388;10.928;2022-08-06T07:45:16;6.30;;;3.88;;
17193;SDS011;8713;48.388;10.928;2022-08-06T07:46:28;5.13;;;3.83;;
17193;SDS011;8713;48.388;10.928;2022-08-06T07:47:41;6.55;;;3.72;;
17193;SDS011;8713;48.388;10.928;2022-08-06T07:48:55;5.40;;;3.88;;
17193;SDS011;8713;48.388;10.928;2022-08-06T07:50:13;6.32;;;4.10;;